Time;durP1;ratioP1;P1;durP2;ratioP2;P2;SDS_P1;SDS_P2;PMS_P1;PMS_P2;Temp;Humidity;BMP_temperature;BMP_pressure;BME280_temperature;BME280_humidity;BME280_pressure;Samples;Min_cycle;Max_cycle;Signal;HPM_P1;HPM_P2
2022/08/11 00:01:29;;;;;;;5.00;4.00;;;25.20;89.90;;;;;;5109843;28;20458;-63
2022/08/11 00:04:06;;;;;;;4.03;3.60;;;25.20;90.10;;;;;;5123122;28;20547;-63
2022/08/11 00:06:38;;;;;;;4.47;3.60;;;25.20;90.20;;;;;;5121489;28;20457;-63
2022/08/11 00:09:11;;;;;;;3.70;3.30;;;25.30;90.00;;;;;;5114307;28;20583;-62
2022/08/11 00:11:46;;;;;;;2.87;2.63;;;25.30;90.60;;;;;;5120815;28;20431;-62
2022/08/11 00:14:20;;;;;;;4.10;3.50;;;25.30;90.20;;;;;;5102774;28;20464;-61
2022/08/11 00:17:02;;;;;;;4.90;4.20;;;25.20;89.80;;;;;;5112489;28;20461;-62
2022/08/11 00:19:37;;;;;;;4.17;3.67;;;25.20;89.40;;;;;;5117968;28;20471;-61
2022/08/11 00:22:30;;;;;;;3.17;2.90;;;25.30;90.10;;;;;;5113465;28;20543;-62
2022/08/11 00:25:10;;;;;;;3.17;2.87;;;25.20;90.50;;;;;;5128169;28;20465;-61
2022/08/11 00:27:42;;;;;;;3.67;3.10;;;25.00;91.00;;;;;;5139027;27;20453;-61
2022/08/11 00:30:15;;;;;;;4.00;3.57;;;24.90;90.90;;;;;;5121927;27;20438;-64
2022/08/11 00:32:57;;;;;;;3.50;3.20;;;24.90;91.60;;;;;;5113572;28;20463;-64
2022/08/11 00:35:32;;;;;;;3.63;3.33;;;25.00;90.90;;;;;;5113817;27;20470;-63
2022/08/11 00:38:26;;;;;;;5.60;3.57;;;25.00;90.90;;;;;;5118520;28;20451;-62
2022/08/11 00:41:05;;;;;;;3.40;3.10;;;24.90;91.00;;;;;;5115198;27;20475;-62
2022/08/11 00:43:51;;;;;;;3.90;2.83;;;24.90;91.40;;;;;;5115237;28;20443;-63
2022/08/11 00:46:41;;;;;;;3.37;3.17;;;25.00;91.70;;;;;;5120790;28;20453;-63
2022/08/11 00:49:24;;;;;;;3.40;2.73;;;25.10;90.90;;;;;;5109111;28;20486;-64
2022/08/11 00:52:14;;;;;;;3.87;3.33;;;25.10;90.00;;;;;;5112620;28;20456;-64
2022/08/11 00:55:26;;;;;;;4.30;3.33;;;25.00;90.00;;;;;;5108206;28;20555;-65
2022/08/11 00:58:28;;;;;;;3.57;3.27;;;24.90;90.40;;;;;;5110880;28;20474;-65
2022/08/11 01:01:26;;;;;;;5.27;3.43;;;24.80;90.30;;;;;;5142486;28;20536;-65
2022/08/11 01:04:31;;;;;;;4.03;3.10;;;24.80;91.70;;;;;;5112690;27;20864;-65
2022/08/11 01:08:04;;;;;;;4.03;3.43;;;24.80;90.60;;;;;;5088520;28;20487;-64
2022/08/11 01:10:50;;;;;;;4.10;3.70;;;25.00;90.00;;;;;;5138247;27;20926;-63
2022/08/11 01:13:47;;;;;;;4.07;3.47;;;24.90;90.20;;;;;;5116480;27;20556;-66
2022/08/11 01:16:46;;;;;;;3.70;3.30;;;24.90;91.50;;;;;;5126753;27;20467;-64
2022/08/11 01:20:03;;;;;;;3.57;3.27;;;24.90;91.20;;;;;;5126349;27;20460;-63
2022/08/11 01:23:33;;;;;;;3.53;3.07;;;24.90;90.60;;;;;;5122759;27;20523;-63
2022/08/11 01:26:45;;;;;;;3.47;3.17;;;25.00;90.40;;;;;;5123479;27;20462;-62
2022/08/11 01:29:49;;;;;;;3.37;2.90;;;25.20;90.50;;;;;;5035465;28;20501;-62
2022/08/11 01:33:00;;;;;;;3.63;3.33;;;25.10;89.60;;;;;;5030696;28;20447;-62
2022/08/11 01:35:58;;;;;;;2.60;2.40;;;25.00;90.80;;;;;;5029574;28;20551;-64
2022/08/11 01:39:10;;;;;;;3.13;2.90;;;24.80;91.40;;;;;;5022591;28;20474;-62
2022/08/11 01:45:36;;;;;;;3.50;3.20;;;24.60;91.20;;;;;;4907211;29;20556;-65
2022/08/11 01:48:15;;;;;;;3.43;3.00;;;24.50;92.20;;;;;;4906705;29;20464;-65
2022/08/11 01:51:09;;;;;;;3.37;2.87;;;24.30;92.30;;;;;;4906285;29;21035;-65
2022/08/11 01:53:55;;;;;;;3.67;3.27;;;24.30;92.20;;;;;;4910988;29;20451;-64
2022/08/11 01:56:45;;;;;;;2.90;2.60;;;24.30;91.80;;;;;;4911655;29;20470;-64
2022/08/11 01:59:20;;;;;;;3.40;3.10;;;24.20;92.10;;;;;;4925600;29;20460;-65
2022/08/11 02:02:44;;;;;;;3.40;3.10;;;24.20;91.40;;;;;;4923028;29;20485;-64
2022/08/11 02:05:46;;;;;;;3.63;3.20;;;24.00;92.20;;;;;;4997545;28;20455;-64
2022/08/11 02:08:31;;;;;;;4.00;3.60;;;24.10;92.20;;;;;;5021147;28;20473;-63
2022/08/11 02:11:34;;;;;;;3.67;3.23;;;24.10;92.20;;;;;;5017300;28;20533;-64
2022/08/11 02:14:19;;;;;;;4.50;3.73;;;24.00;92.20;;;;;;5024033;28;20474;-63
2022/08/11 02:17:00;;;;;;;3.60;3.30;;;24.00;91.60;;;;;;5094303;28;20739;-64
2022/08/11 02:25:39;;;;;;;3.23;2.93;;;23.80;92.40;;;;;;5126935;27;20460;-63
2022/08/11 02:28:22;;;;;;;4.07;3.70;;;23.80;92.50;;;;;;5122171;27;20462;-63
2022/08/11 02:34:19;;;;;;;3.63;3.10;;;23.60;94.00;;;;;;5117766;28;20468;-62
2022/08/11 02:37:05;;;;;;;3.30;3.00;;;23.50;96.30;;;;;;5122666;27;20500;-66
2022/08/11 02:39:45;;;;;;;3.80;3.50;;;23.30;95.60;;;;;;5117255;27;20461;-66
2022/08/11 02:42:29;;;;;;;4.07;3.60;;;23.20;95.90;;;;;;5123202;27;20434;-65
2022/08/11 02:45:18;;;;;;;3.43;3.10;;;23.10;95.60;;;;;;5113935;27;20484;-68
2022/08/11 02:51:04;;;;;;;4.63;4.20;;;22.90;95.60;;;;;;5107048;27;20498;-66
2022/08/11 02:53:55;;;;;;;4.73;4.03;;;22.90;96.90;;;;;;5107537;27;20926;-67
2022/08/11 02:56:43;;;;;;;5.00;4.50;;;22.80;96.40;;;;;;5123758;27;20944;-66
2022/08/11 03:02:26;;;;;;;4.80;4.33;;;22.60;96.70;;;;;;5109670;27;20498;-64
2022/08/11 03:05:10;;;;;;;6.90;3.77;;;22.60;96.50;;;;;;5116493;27;20476;-67
2022/08/11 03:07:51;;;;;;;5.93;3.47;;;22.60;97.00;;;;;;5110787;28;20461;-64
2022/08/11 03:10:25;;;;;;;7.17;4.20;;;22.40;97.70;;;;;;5112361;27;20498;-63
2022/08/11 03:19:09;;;;;;;3.60;3.30;;;22.10;99.90;;;;;;5118180;27;20776;-63
2022/08/11 03:21:48;;;;;;;3.27;2.97;;;21.90;99.90;;;;;;5129368;27;20477;-64
2022/08/11 03:24:46;;;;;;;4.57;3.90;;;21.80;99.90;;;;;;5119883;27;20442;-64
2022/08/11 03:27:35;;;;;;;3.77;3.47;;;21.70;99.90;;;;;;5132571;27;20915;-63
2022/08/11 03:30:15;;;;;;;3.70;3.40;;;21.50;99.90;;;;;;5110544;27;21030;-62
2022/08/11 03:36:13;;;;;;;4.40;4.00;;;21.30;99.90;;;;;;5120293;28;20479;-65
2022/08/11 03:39:01;;;;;;;5.43;4.30;;;21.20;99.90;;;;;;5118997;27;20458;-64
2022/08/11 03:41:43;;;;;;;5.13;4.67;;;21.20;99.90;;;;;;5117237;27;20469;-64
2022/08/11 03:45:00;;;;;;;4.00;3.70;;;21.10;99.90;;;;;;5108590;28;20998;-64
2022/08/11 03:48:06;;;;;;;4.70;3.53;;;21.00;99.90;;;;;;5127458;27;20445;-64
2022/08/11 03:51:14;;;;;;;4.17;3.77;;;21.00;99.90;;;;;;5116845;28;20493;-64
2022/08/11 03:54:08;;;;;;;2.90;2.60;;;21.00;99.90;;;;;;5112469;27;20460;-66
2022/08/11 03:57:21;;;;;;;3.23;2.93;;;20.90;99.90;;;;;;5124461;27;20445;-64
2022/08/11 04:00:19;;;;;;;4.20;3.17;;;20.90;99.90;;;;;;5120779;28;20488;-63
2022/08/11 04:03:26;;;;;;;3.23;2.67;;;20.90;99.90;;;;;;5111717;28;20481;-63
2022/08/11 04:06:38;;;;;;;3.27;2.87;;;20.80;99.90;;;;;;5122346;28;20469;-64
2022/08/11 04:09:48;;;;;;;3.60;2.87;;;20.80;99.90;;;;;;5121594;27;20514;-63
2022/08/11 04:13:12;;;;;;;2.60;2.40;;;20.70;99.90;;;;;;5120319;28;20458;-64
2022/08/11 04:16:04;;;;;;;2.80;2.53;;;20.50;99.90;;;;;;5104839;28;20450;-63
2022/08/11 04:19:28;;;;;;;2.73;2.53;;;20.50;99.90;;;;;;5117602;28;20453;-64
2022/08/11 04:22:34;;;;;;;3.33;2.53;;;20.40;99.90;;;;;;5110549;28;20798;-64
2022/08/11 04:25:37;;;;;;;2.90;2.63;;;20.40;99.90;;;;;;5114812;28;20454;-64
2022/08/11 04:28:55;;;;;;;2.80;2.60;;;20.30;99.90;;;;;;5122909;27;20502;-64
2022/08/11 04:31:39;;;;;;;2.60;2.40;;;20.20;99.90;;;;;;5117805;28;20481;-64
2022/08/11 04:34:45;;;;;;;2.77;2.57;;;20.10;99.90;;;;;;5112481;28;20950;-64
2022/08/11 04:37:58;;;;;;;3.53;2.87;;;20.10;99.90;;;;;;5115794;28;20457;-64
2022/08/11 04:40:57;;;;;;;3.20;2.13;;;20.10;99.90;;;;;;5123363;28;20412;-65
2022/08/11 04:44:04;;;;;;;3.87;2.77;;;20.10;99.90;;;;;;5124263;28;20426;-64
2022/08/11 05:01:39;;;;;;;2.70;2.50;;;20.00;99.90;;;;;;5115102;27;20427;-64
2022/08/11 05:03:36;;;;;;;3.00;2.70;;;19.70;99.90;;;;;;5122080;28;20825;-64
2022/08/11 05:06:29;;;;;;;2.90;2.60;;;19.70;99.90;;;;;;5110087;27;20440;-64
2022/08/11 05:09:26;;;;;;;3.67;3.10;;;19.60;99.90;;;;;;5138229;27;20573;-65
2022/08/11 05:12:35;;;;;;;3.87;3.17;;;19.60;99.90;;;;;;5129972;27;20463;-65
2022/08/11 05:36:02;;;;;;;2.90;2.60;;;19.40;99.90;;;;;;5110964;27;20453;-65
2022/08/11 05:58:39;;;;;;;3.43;2.50;;;19.00;99.90;;;;;;5138045;27;20433;-64
2022/08/11 06:01:13;;;;;;;3.20;2.90;;;19.10;99.90;;;;;;5140021;27;20553;-64
2022/08/11 06:06:39;;;;;;;3.90;3.00;;;18.90;99.90;;;;;;5123839;28;20506;-64
2022/08/11 06:09:15;;;;;;;3.47;2.93;;;18.80;99.90;;;;;;5131178;27;20595;-64
2022/08/11 06:11:46;;;;;;;3.00;2.40;;;18.90;99.90;;;;;;5127467;27;20485;-64
2022/08/11 06:14:17;;;;;;;5.20;2.67;;;18.90;99.90;;;;;;5124267;27;20440;-64
2022/08/11 06:16:50;;;;;;;3.10;2.60;;;18.80;99.90;;;;;;5127725;27;20465;-64
2022/08/11 06:19:23;;;;;;;4.60;3.50;;;18.80;99.90;;;;;;5115945;27;20467;-63
2022/08/11 06:21:56;;;;;;;3.30;2.83;;;18.80;99.90;;;;;;5122629;28;20461;-64
2022/08/11 06:24:28;;;;;;;3.57;2.77;;;18.70;99.90;;;;;;5121818;27;20519;-64
2022/08/11 06:26:59;;;;;;;3.73;2.77;;;18.70;99.90;;;;;;5122766;27;20477;-64
2022/08/11 06:29:50;;;;;;;4.40;3.07;;;18.70;99.90;;;;;;5125651;27;20534;-64
2022/08/11 06:32:29;;;;;;;3.07;2.60;;;18.60;99.90;;;;;;5140402;27;20457;-64
2022/08/11 06:35:13;;;;;;;2.73;2.53;;;18.50;99.90;;;;;;5124761;27;20456;-64
2022/08/11 06:38:03;;;;;;;3.37;2.80;;;18.60;99.90;;;;;;5137070;27;20467;-64
2022/08/11 06:41:28;;;;;;;4.90;3.20;;;18.50;99.90;;;;;;5125854;27;20477;-64
2022/08/11 06:43:47;;;;;;;2.90;1.93;;;18.50;99.90;;;;;;5115249;27;20465;-64
2022/08/11 06:46:30;;;;;;;3.87;3.10;;;18.40;99.90;;;;;;5122001;27;20456;-64
2022/08/11 06:49:03;;;;;;;4.03;3.13;;;18.40;99.90;;;;;;5121168;27;21013;-64
2022/08/11 06:51:37;;;;;;;3.63;3.33;;;18.40;99.90;;;;;;5132437;27;21127;-64
2022/08/11 06:54:14;;;;;;;3.00;2.67;;;18.30;99.90;;;;;;5116843;27;20448;-64
2022/08/11 07:02:50;;;;;;;4.40;3.30;;;18.20;99.90;;;;;;5123234;27;20515;-64
2022/08/11 07:05:25;;;;;;;4.63;2.90;;;18.20;99.90;;;;;;5121477;27;21206;-64
2022/08/11 07:17:32;;;;;;;3.07;2.40;;;18.00;99.90;;;;;;5061045;28;20453;-64
2022/08/11 07:28:56;;;;;;;2.63;2.37;;;17.90;99.90;;;;;;5059470;28;20504;-64
2022/08/11 07:31:34;;;;;;;2.83;2.50;;;17.80;99.90;;;;;;5047243;28;20462;-64
2022/08/11 07:34:18;;;;;;;4.07;2.70;;;17.80;99.90;;;;;;5074439;28;20430;-63
2022/08/11 07:36:52;;;;;;;2.63;2.40;;;17.80;99.90;;;;;;5065717;28;20926;-64
2022/08/11 07:39:26;;;;;;;2.60;2.40;;;17.80;99.90;;;;;;5060254;28;20839;-63
2022/08/11 07:41:58;;;;;;;4.57;2.97;;;17.80;99.90;;;;;;5043520;28;20679;-64
2022/08/11 07:48:10;;;;;;;4.13;2.47;;;17.80;99.90;;;;;;5061597;28;20423;-64
2022/08/11 07:53:01;;;;;;;3.27;2.80;;;17.60;99.90;;;;;;5114317;28;20432;-63
2022/08/11 07:55:33;;;;;;;2.80;2.37;;;17.60;99.90;;;;;;5136756;27;20464;-63
2022/08/11 08:18:25;;;;;;;2.10;1.87;;;17.30;99.90;;;;;;5127103;27;20433;-64
2022/08/11 08:21:10;;;;;;;3.77;2.87;;;17.30;99.90;;;;;;5123557;28;20468;-63
2022/08/11 08:23:43;;;;;;;3.50;2.80;;;17.20;99.90;;;;;;5139068;27;20510;-64
2022/08/11 08:31:55;;;;;;;4.57;3.50;;;17.10;99.90;;;;;;5134982;27;20482;-63
2022/08/11 08:34:28;;;;;;;3.40;2.73;;;17.20;99.90;;;;;;5125604;27;20428;-63
2022/08/11 08:37:01;;;;;;;3.03;2.73;;;17.20;99.90;;;;;;5127275;27;20431;-64
2022/08/11 08:39:53;;;;;;;3.93;2.73;;;17.20;99.90;;;;;;5142323;27;20442;-63
2022/08/11 08:42:28;;;;;;;2.50;2.30;;;17.10;99.90;;;;;;5121344;28;20877;-63
2022/08/11 08:45:04;;;;;;;3.43;3.13;;;17.10;99.90;;;;;;5114563;27;20457;-64
2022/08/11 08:47:38;;;;;;;2.73;2.53;;;17.00;99.90;;;;;;5117457;27;20461;-64
2022/08/11 08:50:18;;;;;;;3.13;2.70;;;17.00;99.90;;;;;;5135410;27;20445;-64
2022/08/11 08:52:54;;;;;;;2.77;2.23;;;17.00;99.90;;;;;;5109924;27;20496;-64
2022/08/11 08:55:27;;;;;;;4.30;2.70;;;16.90;99.90;;;;;;5116898;27;20477;-64
2022/08/11 08:57:59;;;;;;;3.10;2.80;;;16.90;99.90;;;;;;5119788;27;20476;-64
2022/08/11 09:00:41;;;;;;;4.77;2.60;;;16.90;99.90;;;;;;5126065;27;20932;-64
2022/08/11 09:03:12;;;;;;;3.10;2.17;;;16.90;99.90;;;;;;5126018;27;20459;-64
2022/08/11 09:06:06;;;;;;;3.47;2.73;;;16.90;99.90;;;;;;5126734;27;20511;-64
2022/08/11 09:08:39;;;;;;;3.93;2.77;;;16.90;99.90;;;;;;5126746;28;20431;-64
2022/08/11 09:14:02;;;;;;;7.80;2.50;;;16.80;99.90;;;;;;5124347;27;20464;-64
2022/08/11 09:16:37;;;;;;;3.03;2.73;;;16.80;99.90;;;;;;5119678;27;20432;-64
2022/08/11 09:19:09;;;;;;;3.40;2.93;;;16.70;99.90;;;;;;5118613;27;20490;-64
2022/08/11 09:26:57;;;;;;;3.23;2.83;;;16.70;99.90;;;;;;5123009;27;20466;-64
2022/08/11 09:27:27;;;;;;;3.60;3.00;;;16.70;99.90;;;;;;5115885;28;20450;-64
2022/08/11 09:29:58;;;;;;;3.57;2.90;;;16.60;99.90;;;;;;5115580;28;20954;-64
2022/08/11 09:32:31;;;;;;;2.60;2.33;;;16.60;99.90;;;;;;5131746;27;20483;-63
2022/08/11 09:35:05;;;;;;;3.97;2.57;;;16.60;99.90;;;;;;5116843;27;20463;-63
2022/08/11 09:40:30;;;;;;;3.63;2.80;;;16.50;99.90;;;;;;5125637;28;20444;-64
2022/08/11 09:45:54;;;;;;;2.73;2.53;;;16.40;99.90;;;;;;5113199;27;20461;-64
2022/08/11 09:48:26;;;;;;;3.27;2.80;;;16.40;99.90;;;;;;5124874;27;20432;-64
2022/08/11 09:51:00;;;;;;;6.20;2.97;;;16.40;99.90;;;;;;5113733;27;20880;-64
2022/08/11 09:53:37;;;;;;;2.50;2.30;;;16.40;99.90;;;;;;5125049;27;20492;-64
2022/08/11 09:59:02;;;;;;;4.20;2.13;;;16.30;99.90;;;;;;5124610;27;20473;-64
2022/08/11 10:01:39;;;;;;;3.23;2.57;;;16.30;99.90;;;;;;5116707;27;20428;-64
2022/08/11 10:04:16;;;;;;;3.10;2.80;;;16.30;99.90;;;;;;5112233;28;20498;-63
2022/08/11 10:07:05;;;;;;;2.40;2.20;;;16.30;99.90;;;;;;5116117;28;20450;-64
2022/08/11 10:09:42;;;;;;;3.80;2.20;;;16.30;99.90;;;;;;5130756;27;20461;-64
2022/08/11 10:12:20;;;;;;;3.80;2.60;;;16.30;99.90;;;;;;5119966;27;20463;-64
2022/08/11 10:20:36;;;;;;;2.90;2.63;;;16.30;99.90;;;;;;5122925;27;20910;-64
2022/08/11 10:33:58;;;;;;;2.93;2.67;;;16.10;99.90;;;;;;5041993;28;20435;-63
2022/08/11 10:34:57;;;;;;;2.40;2.13;;;16.20;99.90;;;;;;5051781;28;20882;-63
2022/08/11 10:37:35;;;;;;;3.80;2.83;;;16.10;99.90;;;;;;5052035;28;20488;-64
2022/08/11 10:40:27;;;;;;;2.40;2.20;;;16.10;99.90;;;;;;5059082;28;20462;-64
2022/08/11 10:43:06;;;;;;;2.67;2.47;;;16.10;99.90;;;;;;5058730;28;20463;-63
2022/08/11 10:48:28;;;;;;;2.13;1.93;;;16.00;99.90;;;;;;5050129;28;20643;-64
2022/08/11 10:51:14;;;;;;;2.97;2.40;;;16.00;99.90;;;;;;5049968;28;20469;-63
2022/08/11 10:59:46;;;;;;;3.07;2.57;;;16.00;99.90;;;;;;5073418;28;20464;-63
2022/08/11 11:02:17;;;;;;;3.93;2.77;;;16.00;99.90;;;;;;5116232;27;20822;-63
2022/08/11 11:05:03;;;;;;;3.33;2.33;;;16.00;99.90;;;;;;5111725;27;20461;-63
2022/08/11 11:07:43;;;;;;;2.30;2.10;;;15.90;99.90;;;;;;5122059;28;20519;-64
2022/08/11 11:10:14;;;;;;;3.00;2.53;;;15.80;99.90;;;;;;5126907;27;20460;-63
2022/08/11 11:18:34;;;;;;;3.27;2.97;;;15.80;99.90;;;;;;5123364;28;21064;-63
2022/08/11 11:21:09;;;;;;;3.10;2.70;;;15.80;99.90;;;;;;5111438;27;20440;-63
2022/08/11 11:23:46;;;;;;;2.53;1.87;;;15.70;99.90;;;;;;5114429;28;20445;-63
2022/08/11 11:26:37;;;;;;;6.53;2.80;;;15.60;99.90;;;;;;5112819;28;20469;-64
2022/08/11 11:29:53;;;;;;;2.30;2.10;;;15.70;99.90;;;;;;5129217;27;20439;-64
2022/08/11 11:32:38;;;;;;;3.40;2.70;;;15.70;99.90;;;;;;5020449;28;20486;-62
2022/08/11 11:35:25;;;;;;;2.40;2.20;;;15.70;99.90;;;;;;5029252;28;20528;-62
2022/08/11 11:37:57;;;;;;;3.23;2.63;;;15.70;99.90;;;;;;5019950;28;20442;-62
2022/08/11 11:40:36;;;;;;;2.43;2.23;;;15.70;99.90;;;;;;5031172;28;20465;-64
2022/08/11 11:43:07;;;;;;;2.23;1.97;;;15.60;99.90;;;;;;5030753;28;20474;-62
2022/08/11 11:45:38;;;;;;;2.70;2.47;;;15.50;99.90;;;;;;5038012;28;20443;-62
2022/08/11 11:48:13;;;;;;;2.87;2.50;;;15.50;99.90;;;;;;5035262;28;20462;-62
2022/08/11 11:50:44;;;;;;;2.83;2.23;;;15.50;99.90;;;;;;5034895;28;20458;-62
2022/08/11 11:53:15;;;;;;;2.73;2.50;;;15.50;99.90;;;;;;5038353;28;20966;-62
2022/08/11 11:55:47;;;;;;;2.60;2.40;;;15.50;99.90;;;;;;5035659;28;20492;-62
2022/08/11 12:01:18;;;;;;;2.50;2.30;;;15.40;99.90;;;;;;5025421;28;20461;-62
2022/08/11 12:03:52;;;;;;;3.00;2.70;;;15.40;99.90;;;;;;5037030;28;20491;-62
2022/08/11 12:06:26;;;;;;;3.37;2.50;;;15.40;99.90;;;;;;5075807;28;20477;-62
2022/08/11 12:09:00;;;;;;;3.43;2.60;;;15.40;99.90;;;;;;5113153;28;21402;-61
2022/08/11 12:14:24;;;;;;;4.50;3.00;;;15.30;99.90;;;;;;5116541;28;20484;-62
2022/08/11 12:16:57;;;;;;;3.97;2.83;;;15.30;99.90;;;;;;5121364;28;20449;-62
2022/08/11 12:19:30;;;;;;;4.80;2.80;;;15.30;99.90;;;;;;5120541;28;20457;-61
2022/08/11 12:27:42;;;;;;;3.40;3.10;;;15.20;99.90;;;;;;5122460;28;20453;-62
2022/08/11 12:30:14;;;;;;;3.30;2.57;;;15.20;99.90;;;;;;5121914;28;20796;-62
2022/08/11 12:32:46;;;;;;;2.70;2.40;;;15.10;99.90;;;;;;5114590;28;20451;-62
2022/08/11 12:35:18;;;;;;;3.23;2.50;;;15.10;99.90;;;;;;5104147;28;20429;-62
2022/08/11 12:37:54;;;;;;;2.60;2.40;;;15.10;99.90;;;;;;5114360;28;20456;-63
2022/08/11 12:46:36;;;;;;;4.50;2.60;;;15.40;99.90;;;;;;5122705;28;20930;-63
2022/08/11 12:52:05;;;;;;;3.50;2.67;;;15.50;99.90;;;;;;5119918;28;20440;-64
2022/08/11 12:54:58;;;;;;;3.70;2.80;;;15.50;99.90;;;;;;5127624;28;20472;-64
2022/08/11 13:06:24;;;;;;;2.40;2.20;;;15.60;99.90;;;;;;5043748;28;20453;-64
2022/08/11 13:08:58;;;;;;;5.20;3.40;;;15.60;99.90;;;;;;5052042;28;20464;-64
2022/08/11 13:14:27;;;;;;;3.60;2.63;;;15.70;99.90;;;;;;5059480;28;20492;-64
2022/08/11 13:19:48;;;;;;;3.47;2.50;;;15.70;99.90;;;;;;5046032;28;20569;-64
2022/08/11 13:22:20;;;;;;;2.70;2.50;;;15.60;99.90;;;;;;5045671;28;21012;-63
2022/08/11 13:24:54;;;;;;;3.33;2.87;;;15.60;99.90;;;;;;5042169;28;20440;-64
2022/08/11 13:27:25;;;;;;;5.10;3.07;;;15.60;99.90;;;;;;5051433;28;20437;-64
2022/08/11 13:32:42;;;;;;;3.40;2.90;;;15.70;99.90;;;;;;5120955;27;20439;-64
2022/08/11 13:35:15;;;;;;;3.90;2.80;;;15.80;99.90;;;;;;5126476;27;20490;-63
2022/08/11 13:37:47;;;;;;;5.40;3.70;;;15.90;99.90;;;;;;5125127;28;20937;-64
2022/08/11 13:40:41;;;;;;;3.43;3.13;;;16.00;99.90;;;;;;5122401;28;20468;-64
2022/08/11 13:43:25;;;;;;;3.50;3.20;;;16.10;99.90;;;;;;5117656;27;20487;-64
2022/08/11 13:48:42;;;;;;;5.07;3.53;;;16.20;99.90;;;;;;5124435;27;20453;-63
2022/08/11 13:51:32;;;;;;;4.40;4.07;;;16.30;99.90;;;;;;5111964;27;20781;-64
2022/08/11 13:54:06;;;;;;;5.77;3.90;;;16.40;99.90;;;;;;5120509;27;20485;-63
2022/08/11 13:56:42;;;;;;;4.80;4.20;;;16.50;99.90;;;;;;5122652;27;20453;-64
2022/08/11 13:59:15;;;;;;;5.20;4.70;;;16.60;99.90;;;;;;5128728;27;20427;-63
2022/08/11 14:01:50;;;;;;;5.60;4.43;;;16.60;99.90;;;;;;5133951;27;20519;-64
2022/08/11 14:04:44;;;;;;;5.07;4.07;;;16.70;99.90;;;;;;5127657;27;20449;-64
2022/08/11 14:07:19;;;;;;;5.33;4.70;;;16.80;99.90;;;;;;5118501;27;20428;-64
2022/08/11 14:09:54;;;;;;;4.23;3.50;;;16.90;99.90;;;;;;5130242;27;20431;-64
2022/08/11 14:15:23;;;;;;;5.50;4.10;;;17.20;99.90;;;;;;5116772;27;20788;-64
2022/08/11 14:18:02;;;;;;;5.23;4.10;;;17.30;99.90;;;;;;5120199;27;20928;-65
2022/08/11 14:23:20;;;;;;;5.47;4.70;;;17.50;99.90;;;;;;5111406;28;20790;-65
2022/08/11 14:28:40;;;;;;;8.60;6.40;;;17.70;99.90;;;;;;5133321;27;20784;-65
2022/08/11 14:31:15;;;;;;;5.80;5.20;;;17.80;99.90;;;;;;5132311;27;20433;-65
2022/08/11 14:33:47;;;;;;;6.37;5.77;;;17.80;99.90;;;;;;5129911;27;20464;-64
2022/08/11 14:36:36;;;;;;;6.40;5.63;;;17.80;99.90;;;;;;5111097;28;20454;-65
2022/08/11 14:39:11;;;;;;;9.37;7.20;;;17.90;99.90;;;;;;5116303;28;20453;-64
2022/08/11 14:47:54;;;;;;;9.03;6.57;;;18.30;99.90;;;;;;5067150;28;20992;-62
2022/08/11 14:50:27;;;;;;;6.27;5.67;;;18.60;99.90;;;;;;5076916;28;20434;-62
2022/08/11 14:53:03;;;;;;;7.13;6.43;;;18.90;99.90;;;;;;5076671;28;20502;-62
2022/08/11 14:58:32;;;;;;;6.90;6.30;;;19.30;99.90;;;;;;5078947;28;20455;-62
2022/08/11 15:03:05;;;;;;;7.03;6.33;;;20.00;99.90;;;;;;5077963;28;20476;-61
2022/08/11 15:03:58;;;;;;;7.07;6.40;;;20.80;99.90;;;;;;5060378;28;20476;-61
2022/08/11 15:06:50;;;;;;;5.70;5.20;;;21.10;99.90;;;;;;5071452;28;20532;-61
2022/08/11 15:09:21;;;;;;;6.43;5.83;;;20.70;99.90;;;;;;5079118;28;20472;-62
2022/08/11 15:12:15;;;;;;;6.73;6.13;;;22.00;99.90;;;;;;5079035;28;20455;-62
2022/08/11 15:17:56;;;;;;;5.83;5.30;;;26.00;99.90;;;;;;5081688;28;22018;-61
2022/08/11 15:26:08;;;;;;;5.70;5.20;;;25.60;99.70;;;;;;5115506;27;20484;-62
2022/08/11 15:37:30;;;;;;;7.27;6.67;;;26.20;97.80;;;;;;5054092;28;20463;-62
2022/08/11 15:46:01;;;;;;;7.00;6.40;;;28.00;94.20;;;;;;5040173;28;20462;-62
2022/08/11 15:48:39;;;;;;;7.30;6.70;;;26.70;95.80;;;;;;5040565;28;20452;-62
2022/08/11 15:51:21;;;;;;;6.20;5.60;;;25.20;98.70;;;;;;5039483;28;20493;-62
2022/08/11 15:53:58;;;;;;;6.10;5.50;;;24.90;99.90;;;;;;5040098;28;20447;-62
2022/08/11 15:56:32;;;;;;;6.43;5.67;;;26.60;97.20;;;;;;5040040;28;20441;-62
2022/08/11 16:05:01;;;;;;;5.27;4.87;;;27.30;94.10;;;;;;5017561;28;20450;-62
2022/08/11 16:07:36;;;;;;;5.03;4.60;;;27.70;94.20;;;;;;5058639;28;20457;-62
2022/08/11 16:10:17;;;;;;;6.13;5.60;;;28.10;93.60;;;;;;5060230;28;20465;-62
2022/08/11 16:16:13;;;;;;;4.93;4.47;;;29.40;90.10;;;;;;5062892;28;20462;-62
2022/08/11 16:18:49;;;;;;;5.70;4.60;;;30.50;85.20;;;;;;5123133;28;20454;-63
2022/08/11 16:21:23;;;;;;;3.80;3.50;;;30.70;83.70;;;;;;5122187;28;20512;-62
2022/08/11 16:24:08;;;;;;;5.40;4.90;;;31.30;80.70;;;;;;5122846;28;20537;-63
2022/08/11 16:27:01;;;;;;;5.37;4.87;;;32.20;79.50;;;;;;5123357;28;20441;-62
2022/08/11 16:29:46;;;;;;;4.83;4.50;;;32.20;76.50;;;;;;5123471;28;20454;-62
2022/08/11 16:32:22;;;;;;;4.47;4.17;;;32.90;72.70;;;;;;5123025;28;20448;-63
2022/08/11 16:40:52;;;;;;;5.17;4.77;;;33.60;66.30;;;;;;5061868;28;20839;-62
2022/08/11 16:49:06;;;;;;;4.50;4.20;;;34.60;62.30;;;;;;5004981;28;20460;-61
2022/08/11 16:51:38;;;;;;;4.87;4.47;;;33.80;62.50;;;;;;5042436;28;20525;-62
2022/08/11 16:54:09;;;;;;;4.67;4.27;;;34.10;62.00;;;;;;5043432;28;21007;-61
2022/08/11 16:56:46;;;;;;;4.90;4.60;;;34.00;62.70;;;;;;5043011;28;20504;-62
2022/08/11 16:59:19;;;;;;;4.60;4.30;;;34.80;61.10;;;;;;5043402;28;20809;-62
2022/08/11 17:02:00;;;;;;;5.27;4.87;;;35.80;57.80;;;;;;5042973;28;21019;-62
2022/08/11 17:13:32;;;;;;;5.37;4.93;;;34.90;59.00;;;;;;5106066;28;20464;-62
2022/08/11 17:16:09;;;;;;;4.83;4.53;;;35.50;57.90;;;;;;5105116;28;20493;-62
2022/08/11 17:18:48;;;;;;;4.70;4.40;;;35.60;56.40;;;;;;5106258;28;20909;-62
2022/08/11 17:21:23;;;;;;;5.50;5.10;;;34.90;59.10;;;;;;5105348;28;20454;-62
2022/08/11 17:23:55;;;;;;;4.80;4.50;;;35.00;59.90;;;;;;5105258;28;20579;-62
2022/08/11 17:29:21;;;;;;;4.93;4.53;;;35.60;57.70;;;;;;5105712;28;20576;-62
2022/08/11 17:37:33;;;;;;;5.07;4.67;;;35.20;58.50;;;;;;5125004;28;20441;-62
2022/08/11 17:40:07;;;;;;;5.30;4.90;;;34.30;59.60;;;;;;5126043;27;20430;-63
2022/08/11 17:48:27;;;;;;;5.13;4.73;;;34.90;59.70;;;;;;5125840;28;20441;-62
2022/08/11 17:51:00;;;;;;;4.70;4.40;;;35.50;56.00;;;;;;5124912;28;20449;-62
2022/08/11 18:05:27;;;;;;;5.00;4.60;;;35.50;57.50;;;;;;5042000;28;20448;-62
